Share

Alexander, ND

10:21 PM CDT on April 24, 2014 (GMT -0500)
Bison pasture GRASS (KNDALEXA3) Elev 2260 ft | 47.87 °N, 103.62 °W | Change Station

Current weather conditions updated 5 minutes ago

Clear
Clear
51.1 °F
Feels Like 51.1 °F
N
6.0
Wind Variable Wind from SSE
Sunrise 6:48 AM
Sunset 8:57 PM
Moon Waning Crescent

Tomorrow is forecast to be Much Warmer than today. Periods of rain overnight tomorrow night.

Pressure 29.71 in
Visibility 10.0 miles
Clouds Clear
Dew Point 26 °F
Humidity 38%
Rainfall 0.00 in
Snow Depth Not available.
UV 0 out of 16
Pollen 9.40 out of 12
Air Quality Not available.
Flu Activity Sporadic
METAR KS25 250315Z AUTO 00000KT 10SM CLR 02/M04 A2971 RMK AO2

More Conditions Fewer Conditions

Pressure 29.71 in
Visibility 10.0 miles
Clouds Clear
Dew Point 26 °F
Humidity 38%
Rainfall 0.00 in
Snow Depth Not available.
UV 0 out of 16
Pollen 9.40 out of 12
Air Quality Not available.
Flu Activity Sporadic
METAR KS25 250315Z AUTO 00000KT 10SM CLR 02/M04 A2971 RMK AO2

More Conditions Fewer Conditions

10-Day Weather Forecast

Almanac

Astronomy

Apr. 24, 2014 Rise Set
Actual Time 6:48 AM CDT 8:57 PM CDT
Civil Twilight 6:15 AM CDT 9:31 PM CDT
Nautical Twilight 5:33 AM CDT 10:13 PM CDT
Astronomical Twilight 4:46 AM CDT 11:00 PM CDT
Moon 4:23 AM CDT (4/24) 3:55 PM CDT (4/24)
Length of Visible Light 15h 16m
Length of Day
14h 08m
Tomorrow will be 3m 10s longer.
Waning Crescent, 20% of the Moon is Illuminated
Today
Waning Crescent
Apr 29
New
May 6
First Quarter
May 14
Full
May 21
Last Quarter

Today's Extremes

State Highs State Lows

Community

  • Critter
    Critter
  • Jone Runs Falls
    Jone Runs Falls
  • Easter in Shenandoah National Park
    Easter in Shenandoah National Park
  • Sunset at Apalachicola Bay, Florida
    Sunset at Apalachicola Bay, Florida
  • Clouds mov'n in
    Clouds mov'n in

WunderPhotos

Upload Photos

1,704,827 photos uploaded!

WunderBlogs® & News

Nearby

Snow Depth

Station Depth Elevation
No new snow has been reported.

Coastal Water Temperatures

Place Temperature
No Stations Reporting

Earthquake Activity

City Distance Mag. Time & Date
No recent earthquake activity has been reported nearby.
Minimum magnitude displayed is 2.5.

Nearby Weather Stations

Station Location Temp. Windchill Dew Point Humidity Wind Precip. Elev Updated Type
Bison pasture GRASS, Alexander, ND 51.1 °F - 26 °F 38% SSE  at  6.0 mph - / hr 2260 ft 9:16 PM MDT Normal
Fairview, Montana, Fairview, Mt 49.2 °F 49 °F 26 °F 41% WNW  at  1.0 mph - / hr 1939 ft 9:12 PM MDT Normal
Johnson's weather, Williston, ND 46.7 °F 47 °F 30 °F 52% NNW  at  0.0 mph 0.00 in / hr 1916 ft 10:21 PM CDT Rapid Fire
Bennet Loop Industrial Park, Williston, ND 50.1 °F - 28 °F 42% SW  at  0.0 mph 0.00 in / hr 2080 ft 10:21 PM CDT Rapid Fire

Show More Stations Show Fewer Stations

What do you think?

We're not finished. Please let us know what you like, what you don't like, and what you are still missing.